createdAt,value
2022-11-05T00:02:29.006Z,5.03
2022-11-05T00:05:14.757Z,5.47
2022-11-05T00:08:05.753Z,6.60
2022-11-05T00:10:36.982Z,4.90
2022-11-05T00:13:26.557Z,4.47
2022-11-05T00:16:12.139Z,4.43
2022-11-05T00:18:40.489Z,4.77
2022-11-05T00:21:29.191Z,4.40
2022-11-05T00:24:24.117Z,4.83
2022-11-05T00:26:52.415Z,4.00
2022-11-05T00:29:21.892Z,4.97
2022-11-05T00:31:50.112Z,5.50
2022-11-05T00:34:18.264Z,5.00
2022-11-05T00:36:46.261Z,4.73
2022-11-05T00:39:14.182Z,5.90
2022-11-05T00:41:42.156Z,5.03
2022-11-05T00:44:27.746Z,5.10
2022-11-05T00:47:17.142Z,4.90
2022-11-05T00:49:44.143Z,4.67
2022-11-05T00:52:29.736Z,5.23
2022-11-05T00:54:57.923Z,4.23
2022-11-05T00:57:26.325Z,4.83
2022-11-05T00:59:54.441Z,4.70
2022-11-05T01:02:23.970Z,4.93
2022-11-05T01:04:52.088Z,5.47
2022-11-05T01:07:20.061Z,5.40
2022-11-05T01:09:48.307Z,5.17
2022-11-05T01:12:16.337Z,4.87
2022-11-05T01:14:44.453Z,4.53
2022-11-05T01:17:12.485Z,4.23
2022-11-05T01:19:41.997Z,4.07
2022-11-05T01:22:10.003Z,4.00
2022-11-05T01:24:38.079Z,4.03
2022-11-05T01:27:06.135Z,3.80
2022-11-05T01:29:34.209Z,4.23
2022-11-05T01:32:02.246Z,3.87
2022-11-05T01:34:30.438Z,4.40
2022-11-05T01:36:59.818Z,3.47
2022-11-05T01:39:27.903Z,3.53
2022-11-05T01:41:55.987Z,3.43
2022-11-05T01:45:03.865Z,3.30
2022-11-05T01:47:40.343Z,2.80
2022-11-05T01:50:22.502Z,3.10
2022-11-05T01:52:58.223Z,3.10
2022-11-05T01:55:29.514Z,3.13
2022-11-05T01:57:59.908Z,2.97
2022-11-05T02:00:28.243Z,3.80
2022-11-05T02:02:56.415Z,2.70
2022-11-05T02:05:24.909Z,3.10
2022-11-05T02:07:55.351Z,2.80
2022-11-05T02:10:24.035Z,2.90
2022-11-05T02:12:52.241Z,3.10
2022-11-05T02:15:28.479Z,3.60
2022-11-05T02:18:10.744Z,3.27
2022-11-05T02:20:50.927Z,2.73
2022-11-05T02:23:53.999Z,3.23
2022-11-05T02:26:52.907Z,2.30
2022-11-05T02:29:48.406Z,3.00
2022-11-05T02:32:28.038Z,2.80
2022-11-05T02:35:04.716Z,3.50
2022-11-05T02:37:40.839Z,3.80
2022-11-05T02:40:19.222Z,3.10
2022-11-05T02:42:57.010Z,2.93
2022-11-05T02:45:34.786Z,3.30
2022-11-05T02:48:11.193Z,2.77
2022-11-05T02:50:47.812Z,4.10
2022-11-05T02:53:21.104Z,3.43
2022-11-05T02:55:55.556Z,3.20
2022-11-05T02:58:23.803Z,3.70
2022-11-05T03:00:53.878Z,2.83
2022-11-05T03:03:30.373Z,3.60
2022-11-05T03:06:29.310Z,2.87
2022-11-05T03:09:33.091Z,2.90
2022-11-05T03:12:11.418Z,3.90
2022-11-05T03:14:45.808Z,2.97
2022-11-05T03:17:22.278Z,2.67
2022-11-05T03:20:02.345Z,2.80
2022-11-05T03:22:36.355Z,3.10
2022-11-05T03:25:08.929Z,2.73
2022-11-05T03:27:40.399Z,2.60
2022-11-05T03:30:12.456Z,3.37
2022-11-05T03:32:44.907Z,2.50
2022-11-05T03:35:18.200Z,3.07
2022-11-05T03:37:50.115Z,3.17
2022-11-05T03:40:20.830Z,3.10
2022-11-05T03:42:53.460Z,3.30
2022-11-05T03:45:25.833Z,2.83
2022-11-05T03:47:57.941Z,3.27
2022-11-05T03:50:40.040Z,4.03
2022-11-05T03:53:16.426Z,2.63
2022-11-05T03:55:51.806Z,2.83
2022-11-05T03:58:22.428Z,3.00
2022-11-05T04:00:51.953Z,3.03
2022-11-05T04:03:20.194Z,2.83
2022-11-05T04:06:10.409Z,3.37
2022-11-05T04:08:55.825Z,3.63
2022-11-05T04:11:41.307Z,3.23
2022-11-05T04:14:09.257Z,3.60
2022-11-05T04:16:54.555Z,3.83
2022-11-05T04:19:36.449Z,3.97
2022-11-05T04:22:23.382Z,4.40
2022-11-05T04:24:51.480Z,4.07
2022-11-05T04:27:19.552Z,3.90
2022-11-05T04:30:04.805Z,4.27
2022-11-05T04:32:32.901Z,4.53
2022-11-05T04:35:00.862Z,4.40
2022-11-05T04:37:30.231Z,4.17
2022-11-05T04:39:58.360Z,4.53
2022-11-05T04:42:26.383Z,6.23
2022-11-05T04:44:54.289Z,4.60
2022-11-05T04:47:22.276Z,5.17
2022-11-05T04:49:50.274Z,4.20
2022-11-05T04:52:18.225Z,3.93
2022-11-05T04:54:47.545Z,5.67
2022-11-05T04:57:15.696Z,4.97
2022-11-05T04:59:43.665Z,4.87
2022-11-05T05:02:11.656Z,4.90
2022-11-05T05:04:39.637Z,4.70
2022-11-05T05:07:07.752Z,5.40
2022-11-05T05:09:35.716Z,5.03
2022-11-05T05:12:05.314Z,4.90
2022-11-05T05:14:33.233Z,4.27
2022-11-05T05:17:01.392Z,5.60
2022-11-05T05:19:29.550Z,6.27
2022-11-05T05:21:56.546Z,5.70
2022-11-05T05:24:25.088Z,6.23
2022-11-05T05:26:53.513Z,7.00
2022-11-05T05:29:22.838Z,6.70
2022-11-05T05:31:50.885Z,7.00
2022-11-05T05:34:18.981Z,6.40
2022-11-05T05:36:47.030Z,7.13
2022-11-05T05:39:15.087Z,7.03
2022-11-05T05:41:43.066Z,7.07
2022-11-05T05:44:11.157Z,7.63
2022-11-05T05:46:40.710Z,7.13
2022-11-05T05:49:12.629Z,7.07
2022-11-05T05:51:40.915Z,7.20
2022-11-05T05:54:08.900Z,8.13
2022-11-05T05:56:36.915Z,7.97
2022-11-05T05:59:06.941Z,7.40
2022-11-05T06:01:35.099Z,5.87
2022-11-05T06:04:04.861Z,6.23
2022-11-05T06:06:32.933Z,7.10
2022-11-05T06:09:00.952Z,7.03
2022-11-05T06:11:29.189Z,7.90
2022-11-05T06:13:57.717Z,7.27
2022-11-05T06:16:25.890Z,7.30
2022-11-05T06:18:53.956Z,8.03
2022-11-05T06:21:23.446Z,7.17
2022-11-05T06:23:51.541Z,8.10
2022-11-05T06:26:20.678Z,7.00
2022-11-05T06:28:48.644Z,6.80
2022-11-05T06:31:16.753Z,7.30
2022-11-05T06:33:44.790Z,8.80
2022-11-05T06:36:16.403Z,7.37
2022-11-05T06:38:45.782Z,7.80
2022-11-05T06:41:13.813Z,8.90
2022-11-05T06:43:42.400Z,8.10
2022-11-05T06:46:11.705Z,9.30
2022-11-05T06:48:40.234Z,9.37
2022-11-05T06:51:09.495Z,8.40
2022-11-05T06:53:37.718Z,8.07
2022-11-05T06:56:08.712Z,8.47
2022-11-05T06:58:37.089Z,7.30
2022-11-05T07:01:08.590Z,9.93
2022-11-05T07:03:38.019Z,8.67
2022-11-05T07:06:07.489Z,8.20
2022-11-05T07:08:37.207Z,8.10
2022-11-05T07:11:07.150Z,8.07
2022-11-05T07:13:35.138Z,9.27
2022-11-05T07:16:03.169Z,10.20
2022-11-05T07:18:31.104Z,10.10
2022-11-05T07:21:00.540Z,10.90
2022-11-05T07:23:28.495Z,13.33
2022-11-05T07:25:56.597Z,12.30
2022-11-05T07:28:25.908Z,10.80
2022-11-05T07:30:54.138Z,11.53
2022-11-05T07:33:22.087Z,11.83
2022-11-05T07:35:50.049Z,12.63
2022-11-05T07:38:19.094Z,13.70
2022-11-05T07:40:47.092Z,12.57
2022-11-05T07:43:15.248Z,12.83
2022-11-05T07:45:46.462Z,13.30
2022-11-05T07:48:14.450Z,11.73
2022-11-05T07:50:42.663Z,11.40
2022-11-05T07:53:13.554Z,12.37
2022-11-05T07:55:46.451Z,11.27
2022-11-05T07:58:14.833Z,11.57
2022-11-05T08:00:44.563Z,10.27
2022-11-05T08:03:16.957Z,10.80
2022-11-05T08:05:47.560Z,10.30
2022-11-05T08:08:18.064Z,9.70
2022-11-05T08:10:46.762Z,9.80
2022-11-05T08:13:16.115Z,9.30
2022-11-05T08:15:45.989Z,8.67
2022-11-05T08:18:15.729Z,9.27
2022-11-05T08:20:45.279Z,8.80
2022-11-05T08:23:14.423Z,7.83
2022-11-05T08:25:42.794Z,8.93
2022-11-05T08:28:13.706Z,8.47
2022-11-05T08:30:41.993Z,8.03
2022-11-05T08:33:13.634Z,8.47
2022-11-05T08:35:42.642Z,9.80
2022-11-05T08:38:13.668Z,8.43
2022-11-05T08:40:42.454Z,9.40
2022-11-05T08:43:13.440Z,8.20
2022-11-05T08:45:42.774Z,9.20
2022-11-05T08:48:14.907Z,9.07
2022-11-05T08:50:46.197Z,8.80
2022-11-05T08:55:59.696Z,9.10
2022-11-05T08:58:27.809Z,8.30
2022-11-05T09:00:58.982Z,9.57
2022-11-05T09:03:34.309Z,8.63
2022-11-05T09:06:04.239Z,8.63
2022-11-05T09:08:35.457Z,8.50
2022-11-05T09:11:03.569Z,9.30
2022-11-05T09:13:31.892Z,9.57
2022-11-05T09:16:00.231Z,9.03
2022-11-05T09:18:28.269Z,9.87
2022-11-05T09:20:57.990Z,9.50
2022-11-05T09:23:26.056Z,10.07
2022-11-05T09:25:54.112Z,10.00
2022-11-05T09:28:24.054Z,10.20
2022-11-05T09:30:53.624Z,10.33
2022-11-05T09:33:24.099Z,10.80
2022-11-05T09:35:52.612Z,11.27
2022-11-05T09:38:22.098Z,10.93
2022-11-05T09:40:57.919Z,11.30
2022-11-05T09:43:31.971Z,11.77
2022-11-05T09:46:05.689Z,11.50
2022-11-05T09:48:35.430Z,14.60
2022-11-05T09:51:06.123Z,12.23
2022-11-05T09:53:39.863Z,13.20
2022-11-05T09:56:19.790Z,11.67
2022-11-05T09:58:51.088Z,12.50
2022-11-05T10:01:26.391Z,12.00
2022-11-05T10:03:57.830Z,12.07
2022-11-05T10:06:28.588Z,9.80
2022-11-05T10:09:03.881Z,12.70
2022-11-05T10:11:37.265Z,12.07
2022-11-05T10:14:12.061Z,11.40
2022-11-05T10:16:44.549Z,11.67
2022-11-05T10:19:22.010Z,11.40
2022-11-05T10:22:06.143Z,11.30
2022-11-05T10:24:36.232Z,11.50
2022-11-05T10:27:05.740Z,11.70
2022-11-05T10:29:36.417Z,11.80
2022-11-05T10:32:07.479Z,11.83
2022-11-05T10:34:38.382Z,11.60
2022-11-05T10:37:06.858Z,11.23
2022-11-05T10:39:36.864Z,11.77
2022-11-05T10:42:22.432Z,11.57
2022-11-05T10:44:59.483Z,11.10
2022-11-05T10:47:42.277Z,11.87
2022-11-05T10:50:13.249Z,11.03
2022-11-05T10:52:47.062Z,10.77
2022-11-05T10:55:22.352Z,10.63
2022-11-05T10:57:50.502Z,11.40
2022-11-05T11:00:36.585Z,10.90
2022-11-05T11:03:06.732Z,10.57
2022-11-05T11:05:37.279Z,10.80
2022-11-05T11:08:20.869Z,10.03
2022-11-05T11:10:54.126Z,9.80
2022-11-05T11:13:25.693Z,9.43
2022-11-05T11:15:55.669Z,9.97
2022-11-05T11:18:35.998Z,10.67
2022-11-05T11:21:13.596Z,12.00
2022-11-05T11:23:43.741Z,10.07
2022-11-05T11:26:14.927Z,10.50
2022-11-05T11:28:50.596Z,10.97
2022-11-05T11:31:23.912Z,10.33
2022-11-05T11:33:57.374Z,9.90
2022-11-05T11:36:33.092Z,10.90
2022-11-05T11:39:02.954Z,9.90
2022-11-05T11:41:35.837Z,10.23
2022-11-05T11:44:09.075Z,10.90
2022-11-05T11:46:37.840Z,9.80
2022-11-05T11:49:07.746Z,8.70
2022-11-05T11:51:40.791Z,10.17
2022-11-05T11:54:21.326Z,9.27
2022-11-05T11:56:56.080Z,9.93
2022-11-05T11:59:53.802Z,9.13
2022-11-05T12:02:45.953Z,9.23
2022-11-05T12:05:37.727Z,9.20
2022-11-05T12:08:50.734Z,9.43
2022-11-05T12:11:30.856Z,9.40
2022-11-05T12:14:14.141Z,9.43
2022-11-05T12:17:01.906Z,7.83
2022-11-05T12:19:57.817Z,8.40
2022-11-05T12:22:36.588Z,8.60
2022-11-05T12:25:20.219Z,9.30
2022-11-05T12:28:02.822Z,8.10
2022-11-05T12:30:40.607Z,7.50
2022-11-05T12:33:25.647Z,8.30
2022-11-05T12:36:06.451Z,7.90
2022-11-05T12:39:00.984Z,6.90
2022-11-05T12:41:33.546Z,7.20
2022-11-05T12:44:24.329Z,6.80
2022-11-05T12:47:04.476Z,7.00
2022-11-05T12:49:54.146Z,6.60
2022-11-05T12:52:47.926Z,7.80
2022-11-05T12:55:19.625Z,7.73
2022-11-05T12:57:50.627Z,6.70
2022-11-05T13:00:21.096Z,7.03
2022-11-05T13:02:55.734Z,7.27
2022-11-05T13:05:34.015Z,8.60
2022-11-05T13:08:07.557Z,7.03
2022-11-05T13:10:40.834Z,6.80
2022-11-05T13:13:17.737Z,7.60
2022-11-05T13:15:52.101Z,7.63
2022-11-05T13:18:25.480Z,8.10
2022-11-05T13:20:55.687Z,9.17
2022-11-05T13:23:32.337Z,7.33
2022-11-05T13:26:04.475Z,8.00
2022-11-05T13:28:39.955Z,8.40
2022-11-05T13:31:13.741Z,8.40
2022-11-05T13:33:45.452Z,8.20
2022-11-05T13:36:34.378Z,7.27
2022-11-05T13:39:13.728Z,7.80
2022-11-05T13:42:03.124Z,10.43
2022-11-05T13:45:03.433Z,7.83
2022-11-05T13:47:51.211Z,10.03
2022-11-05T13:50:50.143Z,8.50
2022-11-05T13:53:49.328Z,7.70
2022-11-05T13:56:46.731Z,6.87
2022-11-05T13:59:43.313Z,7.10
2022-11-05T14:02:18.323Z,6.97
2022-11-05T14:04:49.083Z,6.30
2022-11-05T14:07:21.801Z,7.37
2022-11-05T14:09:55.835Z,6.10
2022-11-05T14:12:29.681Z,6.63
2022-11-05T14:15:06.165Z,6.03
2022-11-05T14:17:36.599Z,5.70
2022-11-05T14:20:25.354Z,5.47
2022-11-05T14:22:54.924Z,5.00
2022-11-05T14:25:54.835Z,4.70
2022-11-05T14:28:41.181Z,5.70
2022-11-05T14:32:02.653Z,5.77
2022-11-05T14:34:41.228Z,5.43
2022-11-05T14:37:31.320Z,5.47
2022-11-05T14:40:19.060Z,5.57
2022-11-05T14:42:52.284Z,5.60
2022-11-05T14:45:28.316Z,5.60
2022-11-05T14:47:58.539Z,6.53
2022-11-05T14:50:37.633Z,4.90
2022-11-05T14:53:13.545Z,6.00
2022-11-05T14:55:44.742Z,5.67
2022-11-05T14:58:31.815Z,5.93
2022-11-05T15:01:01.061Z,5.90
2022-11-05T15:03:33.001Z,4.87
2022-11-05T15:06:19.857Z,5.00
2022-11-05T15:09:15.540Z,4.87
2022-11-05T15:11:51.111Z,5.33
2022-11-05T15:14:24.540Z,4.80
2022-11-05T15:16:55.818Z,5.10
2022-11-05T15:19:30.033Z,6.30
2022-11-05T15:22:00.519Z,5.63
2022-11-05T15:24:29.268Z,5.80
2022-11-05T15:27:04.984Z,5.30
2022-11-05T15:29:33.980Z,6.17
2022-11-05T15:32:02.432Z,7.40
2022-11-05T15:34:32.366Z,5.43
2022-11-05T15:37:02.542Z,6.60
2022-11-05T15:39:45.185Z,6.00
2022-11-05T15:42:17.450Z,7.10
2022-11-05T15:44:47.074Z,6.10
2022-11-05T15:47:21.809Z,7.13
2022-11-05T15:49:54.076Z,6.10
2022-11-05T15:52:24.771Z,6.70
2022-11-05T15:55:18.346Z,6.77
2022-11-05T15:57:51.539Z,6.63
2022-11-05T16:00:22.458Z,6.33
2022-11-05T16:02:56.041Z,6.80
2022-11-05T16:05:26.212Z,6.70
2022-11-05T16:07:54.729Z,6.30
2022-11-05T16:10:26.080Z,6.93
2022-11-05T16:12:55.344Z,6.07
2022-11-05T16:15:26.228Z,5.67
2022-11-05T16:17:57.479Z,7.23
2022-11-05T16:20:30.936Z,6.73
2022-11-05T16:23:01.755Z,5.70
2022-11-05T16:25:37.842Z,6.00
2022-11-05T16:28:20.332Z,7.40
2022-11-05T16:30:58.335Z,6.80
2022-11-05T16:33:28.316Z,9.70
2022-11-05T16:35:56.297Z,7.23
2022-11-05T16:38:25.036Z,7.43
2022-11-05T16:40:53.164Z,7.00
2022-11-05T16:43:24.299Z,7.50
2022-11-05T16:45:55.065Z,8.03
2022-11-05T16:48:23.410Z,7.43
2022-11-05T16:50:52.247Z,7.90
2022-11-05T16:53:21.222Z,8.70
2022-11-05T16:55:49.497Z,8.60
2022-11-05T16:58:22.385Z,8.70
2022-11-05T17:00:52.417Z,8.70
2022-11-05T17:03:20.594Z,8.97
2022-11-05T17:05:48.871Z,9.83
2022-11-05T17:08:16.842Z,9.83
2022-11-05T17:10:44.867Z,10.30
2022-11-05T17:13:16.325Z,9.77
2022-11-05T17:15:48.038Z,9.30
2022-11-05T17:18:18.852Z,8.90
2022-11-05T17:20:48.964Z,8.70
2022-11-05T17:23:18.550Z,9.17
2022-11-05T17:25:49.016Z,8.97
2022-11-05T17:28:17.805Z,8.03
2022-11-05T17:30:52.196Z,8.70
2022-11-05T17:33:21.858Z,7.57
2022-11-05T17:35:50.465Z,7.70
2022-11-05T17:38:18.866Z,8.80
2022-11-05T17:40:47.237Z,9.23
2022-11-05T17:43:16.394Z,7.20
2022-11-05T17:45:47.363Z,8.17
2022-11-05T17:48:15.845Z,8.13
2022-11-05T17:50:44.918Z,9.03
2022-11-05T17:53:13.562Z,8.77
2022-11-05T17:55:42.604Z,8.80
2022-11-05T17:58:10.919Z,8.67
2022-11-05T18:00:39.753Z,8.77
2022-11-05T18:03:10.526Z,8.43
2022-11-05T18:05:40.032Z,8.00
2022-11-05T18:08:09.319Z,8.00
2022-11-05T18:10:38.239Z,8.97
2022-11-05T18:13:06.389Z,7.90
2022-11-05T18:15:35.685Z,8.30
2022-11-05T18:18:03.891Z,7.60
2022-11-05T18:20:33.306Z,8.20
2022-11-05T18:23:01.373Z,7.57
2022-11-05T18:25:29.430Z,6.93
2022-11-05T18:27:57.720Z,7.07
2022-11-05T18:30:25.835Z,5.80
2022-11-05T18:32:54.100Z,6.80
2022-11-05T18:35:22.140Z,6.00
2022-11-05T18:37:51.655Z,6.50
2022-11-05T18:40:19.778Z,7.00
2022-11-05T18:42:47.836Z,6.80
2022-11-05T18:45:16.278Z,7.43
2022-11-05T18:47:44.320Z,6.40
2022-11-05T18:50:12.392Z,6.43
2022-11-05T18:52:40.501Z,6.50
2022-11-05T18:55:10.893Z,6.40
2022-11-05T18:57:39.159Z,5.60
2022-11-05T19:00:08.861Z,5.40
2022-11-05T19:02:37.117Z,6.00
2022-11-05T19:07:53.957Z,7.27
2022-11-05T19:10:23.360Z,6.90
2022-11-05T19:12:51.793Z,7.20
2022-11-05T19:15:20.561Z,6.73
2022-11-05T19:17:48.692Z,5.90
2022-11-05T19:20:17.188Z,6.80
2022-11-05T19:22:45.188Z,6.43
2022-11-05T19:25:13.504Z,6.90
2022-11-05T19:27:43.699Z,7.70
2022-11-05T19:30:12.681Z,7.50
2022-11-05T19:32:40.799Z,7.03
2022-11-05T19:35:09.439Z,8.13
2022-11-05T19:37:37.599Z,7.03
2022-11-05T19:40:06.458Z,7.03
2022-11-05T19:42:34.500Z,7.00
2022-11-05T19:45:23.471Z,7.10
2022-11-05T19:47:52.056Z,7.33
2022-11-05T19:50:20.080Z,6.30
2022-11-05T19:52:48.152Z,7.27
2022-11-05T19:55:16.322Z,7.73
2022-11-05T19:57:44.938Z,7.67
2022-11-05T20:00:15.647Z,8.37
2022-11-05T20:02:46.326Z,8.73
2022-11-05T20:05:15.156Z,8.10
2022-11-05T20:07:46.961Z,8.30
2022-11-05T20:10:17.879Z,8.83
2022-11-05T20:12:47.811Z,8.17
2022-11-05T20:15:19.108Z,8.57
2022-11-05T20:17:51.190Z,8.40
2022-11-05T20:20:20.392Z,9.23
2022-11-05T20:22:48.653Z,9.10
2022-11-05T20:25:16.885Z,8.67
2022-11-05T20:27:45.169Z,8.80
2022-11-05T20:30:13.615Z,7.93
2022-11-05T20:32:43.021Z,9.33
2022-11-05T20:35:11.592Z,8.57
2022-11-05T20:37:39.555Z,8.90
2022-11-05T20:40:08.622Z,8.47
2022-11-05T20:42:37.233Z,8.73
2022-11-05T20:45:05.829Z,7.80
2022-11-05T20:47:33.885Z,8.13
2022-11-05T20:50:04.089Z,8.70
2022-11-05T20:52:32.235Z,8.90
2022-11-05T20:55:01.127Z,8.00
2022-11-05T20:57:29.196Z,7.80
2022-11-05T20:59:57.172Z,9.13
2022-11-05T21:02:25.316Z,9.13
2022-11-05T21:04:53.456Z,8.93
2022-11-05T21:07:22.826Z,9.40
2022-11-05T21:09:50.932Z,8.70
2022-11-05T21:12:21.126Z,9.23
2022-11-05T21:14:49.653Z,8.70
2022-11-05T21:17:17.746Z,8.93
2022-11-05T21:19:46.026Z,8.50
2022-11-05T21:22:16.066Z,8.67
2022-11-05T21:24:45.421Z,9.10
2022-11-05T21:27:13.417Z,10.03
2022-11-05T21:29:41.424Z,9.53
2022-11-05T21:32:09.378Z,9.03
2022-11-05T21:34:37.309Z,9.30
2022-11-05T21:37:06.069Z,10.20
2022-11-05T21:39:34.969Z,10.80
2022-11-05T21:42:04.540Z,8.93
2022-11-05T21:44:32.644Z,9.47
2022-11-05T21:47:01.976Z,10.13
2022-11-05T21:49:29.959Z,10.60
2022-11-05T21:52:15.367Z,10.77
2022-11-05T21:55:00.666Z,10.10
2022-11-05T21:57:47.678Z,11.63
2022-11-05T22:00:15.881Z,10.87
2022-11-05T22:02:44.009Z,11.20
2022-11-05T22:05:12.232Z,11.10
2022-11-05T22:07:40.899Z,8.73
2022-11-05T22:10:16.034Z,11.53
2022-11-05T22:12:46.441Z,11.23
2022-11-05T22:15:14.869Z,10.00
2022-11-05T22:17:46.856Z,11.80
2022-11-05T22:20:15.607Z,11.20
2022-11-05T22:22:46.724Z,11.60
2022-11-05T22:25:15.618Z,11.63
2022-11-05T22:27:47.972Z,11.27
2022-11-05T22:30:16.370Z,11.40
2022-11-05T22:32:46.334Z,11.57
2022-11-05T22:35:14.920Z,10.50
2022-11-05T22:37:43.448Z,10.87
2022-11-05T22:40:11.805Z,12.10
2022-11-05T22:42:39.856Z,11.97
2022-11-05T22:45:11.539Z,11.70
2022-11-05T22:47:43.496Z,12.40
2022-11-05T22:50:12.401Z,11.17
2022-11-05T22:52:40.723Z,12.47
2022-11-05T22:55:09.510Z,11.53
2022-11-05T22:57:37.860Z,11.47
2022-11-05T23:00:17.222Z,10.70
2022-11-05T23:02:46.011Z,11.50
2022-11-05T23:05:16.316Z,11.60
2022-11-05T23:08:04.636Z,10.90
2022-11-05T23:10:50.414Z,12.43
2022-11-05T23:13:19.192Z,12.80
2022-11-05T23:16:07.671Z,12.70
2022-11-05T23:18:54.010Z,11.37
2022-11-05T23:21:40.094Z,11.03
2022-11-05T23:24:26.542Z,11.27
2022-11-05T23:26:54.908Z,11.30
2022-11-05T23:29:29.839Z,13.20
2022-11-05T23:32:25.426Z,12.00
2022-11-05T23:34:54.526Z,11.27
2022-11-05T23:37:53.082Z,12.37
2022-11-05T23:40:23.049Z,12.70
2022-11-05T23:43:08.441Z,11.30
2022-11-05T23:45:56.998Z,12.73
2022-11-05T23:48:29.586Z,12.93
2022-11-05T23:51:01.437Z,12.43
2022-11-05T23:56:15.063Z,13.43
2022-11-05T23:58:44.130Z,12.63
